Pagina principale
METAR-TAF:

METAR-TAF

Aeroporti :

Farnborough, Inghilterra

latitudine: 51-17N, longitudine: 000-46W, altezza: 65 m

Osservazione

Il bollettino è stato emesso 25 minuti fa, alle 17:20 UTC
Vento 15 kt da est
Temperature 21°C
Umidità 35%
Pressione 1022 hPa
Visibilità 10 km o più

METAR: EGLF 311720Z AUTO 09015KT 9999 NCD 21/05 Q1022

Ora: 18:45 (17:45 UTC)

Previsione

Il bollettino è stato emesso 3 ore e 44 minuti fa, alle 14:01 UTC
Previsione valida dal 31 alle 15 UTC al 31 alle 19 UTC
Vento 14 kt da est
Visibilità 10 km o più
nessuna nube inferiore a 1500 m e nessun cumulonembo
Probabilità 40% :
Temporaneamente
dal 31 alle 15 UTC al 31 alle 19 UTC
Vento 16 kt da est/nord-est con raffiche fino a 26 kt

TAF: EGLF 311401Z 3115/3119 08014KT CAVOK PROB40 TEMPO 3115/3119 07016G26KT

Osservazioni e previsioni meteorologiche di più di 4000 aeroporti (messaggi METAR e TAF).

Le stazioni disponibili sono rappresentate dai dischi gialli e rossi sulla carta.

Puntare il mouse per vedere il nome della stazione.

Clicca sopra per visualizzare le osservazioni e previsioni meteorologiche.

Per cambiare la mappa : fare clic sui pulsanti verdi con una croce nera per ingrandire, il pulsante verde con un trattino per diminuire, o sulla freccia verde per le mappe adiacenti.


METAR-TAF: